Akeeva — WDE7272 — position and weather

sailwx.info

Track history (hours):
 
Tides and Currents Weather Stations Pressure Air Temp Water Temp Dewpoint Dewpoint Depression Visibility Wind Speed Wind Dir Waves Ship Positions

Akeeva

Owner: Cann, John P, Vancouver, WA. More information available from US FCC via Universal Licensing System and Coast Guard Vessel Documentation Center.

Last reported at 2014-Oct-19 22:20 UTC. Time now 2014-Oct-21 02:16 UTC.
Position N 47°41' W 122°24'.

Length 16 m.

Type: Pleasure craft. MMSI: 367391170.

Date/timePositionNaut miles runAvg speedWind from/ knotsBaromVisibWave heightAir tempDewpointWater temp
2014-Oct-19 22:20N 47°41' W 122°24'0 0.0
2014-Oct-19 21:32N 47°41' W 122°24'0 0.0
2014-Oct-19 20:32N 47°41' W 122°24'0 0.0
2014-Oct-19 20:16N 47°41' W 122°24'0 0.0
2014-Oct-18 18:34N 47°41' W 122°24'0 0.0
2014-Oct-18 18:31N 47°41' W 122°24'0 0.0
2014-Oct-18 18:19N 47°41' W 122°24'0 0.0
2014-Oct-18 17:31N 47°41' W 122°24'0 0.0
2014-Oct-18 17:19N 47°41' W 122°24'0 0.0
2014-Oct-18 16:31N 47°41' W 122°24'0 0.0
2014-Oct-18 16:19N 47°41' W 122°24'0 0.0
2014-Oct-18 15:31N 47°41' W 122°24'0 0.0
2014-Oct-18 15:19N 47°41' W 122°24'0 0.0
2014-Oct-18 06:21N 47°41' W 122°24'0 0.0
2014-Oct-18 05:24N 47°41' W 122°24'0 0.0
2014-Oct-18 04:33N 47°41' W 122°24'0 0.0
2014-Oct-18 03:33N 47°41' W 122°24'0 0.0
2014-Oct-18 02:56N 47°41' W 122°24'0 0.0
2014-Oct-18 02:33N 47°41' W 122°24'0 0.0
2014-Oct-18 01:56N 47°41' W 122°24'0 0.0
2014-Oct-18 01:33N 47°41' W 122°24'0 0.0
2014-Oct-18 01:27N 47°41' W 122°24'0 0.0
2014-Oct-18 00:33N 47°41' W 122°24'0 0.0
2014-Oct-18 00:12N 47°41' W 122°24'0 0.0
2014-Oct-17 23:30N 47°41' W 122°24'0 0.0
2014-Oct-17 23:11N 47°41' W 122°24'0 0.0
2014-Oct-17 22:33N 47°41' W 122°24'0 0.0
2014-Oct-17 22:27N 47°41' W 122°24'0 0.0
2014-Oct-17 21:30N 47°41' W 122°24'0 0.0
2014-Oct-17 20:30N 47°41' W 122°24'0 0.0
2014-Oct-17 20:06N 47°41' W 122°24'0 0.0
2014-Oct-17 19:27N 47°41' W 122°24'0 0.0
2014-Oct-17 19:21N 47°41' W 122°24'0 0.0
2014-Oct-17 18:27N 47°41' W 122°24'0 0.0
2014-Oct-17 18:06N 47°41' W 122°24'0 0.0
2014-Oct-17 17:33N 47°41' W 122°24'0 0.0
2014-Oct-17 17:21N 47°41' W 122°24'0 0.0
2014-Oct-17 16:33N 47°41' W 122°24'0 0.0
2014-Oct-17 16:21N 47°41' W 122°24'0 0.0
2014-Oct-17 15:33N 47°41' W 122°24'0 0.0
2014-Oct-17 15:21N 47°41' W 122°24'0 0.0
2014-Oct-17 14:33N 47°41' W 122°24'0 0.0
2014-Oct-17 14:20N 47°41' W 122°24'  
2014-Oct-13 22:20N 47°41' W 122°24'0 0.0
2014-Oct-13 22:11N 47°41' W 122°24'0 0.0
2014-Oct-13 21:32N 47°41' W 122°24'0 0.3
2014-Oct-13 21:31N 47°41' W 122°24'0 0.3
2014-Oct-13 20:32N 47°41' W 122°24'0 2.0
2014-Oct-13 20:31N 47°41' W 122°24'8 8.1
2014-Oct-13 19:33N 47°34' W 122°28'10 9.8
2014-Oct-13 18:33N 47°24' W 122°32'9 8.6
2014-Oct-13 17:33N 47°16' W 122°27'2 0.1
2014-Oct-13 04:29N 47°15' W 122°26'0 0.0
2014-Oct-13 01:32N 47°15' W 122°26'0 0.0
2014-Oct-13 00:32N 47°15' W 122°26'0 0.0
2014-Oct-12 06:19N 47°15' W 122°26'0 0.0
2014-Oct-12 05:28N 47°15' W 122°26'0 0.0
2014-Oct-12 04:31N 47°15' W 122°26'0 0.0
2014-Oct-12 03:31N 47°15' W 122°26'0 0.0
2014-Oct-12 02:28N 47°15' W 122°26'0 0.0
2014-Oct-12 01:22N 47°15' W 122°26'0 0.0
2014-Oct-12 00:31N 47°15' W 122°26'0 0.0
2014-Oct-11 21:03N 47°15' W 122°26'1 1.2
2014-Oct-11 20:33N 47°15' W 122°26'9 8.5
2014-Oct-11 19:33N 47°23' W 122°22'8 8.4
2014-Oct-11 18:33N 47°32' W 122°25'4 8.0
2014-Oct-11 18:04N 47°35' W 122°26'4 7.9
2014-Oct-11 17:33N 47°39' W 122°27'1 8.0
2014-Oct-11 17:24N 47°40' W 122°25'1 0.9
2014-Oct-11 16:31N 47°41' W 122°24'0 0.0
2014-Oct-11 16:19N 47°41' W 122°24'  
Track history (hours):
 
Tides and Currents Weather Stations Pressure Air Temp Water Temp Dewpoint Dewpoint Depression Visibility Wind Speed Wind Dir Waves Ship Positions

Akeeva

Owner: Cann, John P, Vancouver, WA. More information available from US FCC via Universal Licensing System and Coast Guard Vessel Documentation Center.

Last reported at 2014-Oct-19 22:20 UTC. Time now 2014-Oct-21 02:16 UTC.
Position N 47°41' W 122°24'.

Length 16 m.

Type: Pleasure craft. MMSI: 367391170.

Date/timePositionNaut miles runAvg speedWind from/ knotsBaromVisibWave heightAir tempDewpointWater temp
2014-Oct-19 22:20N 47°41' W 122°24'0 0.0
2014-Oct-19 21:32N 47°41' W 122°24'0 0.0
2014-Oct-19 20:32N 47°41' W 122°24'0 0.0
2014-Oct-19 20:16N 47°41' W 122°24'0 0.0
2014-Oct-18 18:34N 47°41' W 122°24'0 0.0
2014-Oct-18 18:31N 47°41' W 122°24'0 0.0
2014-Oct-18 18:19N 47°41' W 122°24'0 0.0
2014-Oct-18 17:31N 47°41' W 122°24'0 0.0
2014-Oct-18 17:19N 47°41' W 122°24'0 0.0
2014-Oct-18 16:31N 47°41' W 122°24'0 0.0
2014-Oct-18 16:19N 47°41' W 122°24'0 0.0
2014-Oct-18 15:31N 47°41' W 122°24'0 0.0
2014-Oct-18 15:19N 47°41' W 122°24'0 0.0
2014-Oct-18 06:21N 47°41' W 122°24'0 0.0
2014-Oct-18 05:24N 47°41' W 122°24'0 0.0
2014-Oct-18 04:33N 47°41' W 122°24'0 0.0
2014-Oct-18 03:33N 47°41' W 122°24'0 0.0
2014-Oct-18 02:56N 47°41' W 122°24'0 0.0
2014-Oct-18 02:33N 47°41' W 122°24'0 0.0
2014-Oct-18 01:56N 47°41' W 122°24'0 0.0
2014-Oct-18 01:33N 47°41' W 122°24'0 0.0
2014-Oct-18 01:27N 47°41' W 122°24'0 0.0
2014-Oct-18 00:33N 47°41' W 122°24'0 0.0
2014-Oct-18 00:12N 47°41' W 122°24'0 0.0
2014-Oct-17 23:30N 47°41' W 122°24'0 0.0
2014-Oct-17 23:11N 47°41' W 122°24'0 0.0
2014-Oct-17 22:33N 47°41' W 122°24'0 0.0
2014-Oct-17 22:27N 47°41' W 122°24'0 0.0
2014-Oct-17 21:30N 47°41' W 122°24'0 0.0
2014-Oct-17 20:30N 47°41' W 122°24'0 0.0
2014-Oct-17 20:06N 47°41' W 122°24'0 0.0
2014-Oct-17 19:27N 47°41' W 122°24'0 0.0
2014-Oct-17 19:21N 47°41' W 122°24'0 0.0
2014-Oct-17 18:27N 47°41' W 122°24'0 0.0
2014-Oct-17 18:06N 47°41' W 122°24'0 0.0
2014-Oct-17 17:33N 47°41' W 122°24'0 0.0
2014-Oct-17 17:21N 47°41' W 122°24'0 0.0
2014-Oct-17 16:33N 47°41' W 122°24'0 0.0
2014-Oct-17 16:21N 47°41' W 122°24'0 0.0
2014-Oct-17 15:33N 47°41' W 122°24'0 0.0
2014-Oct-17 15:21N 47°41' W 122°24'0 0.0
2014-Oct-17 14:33N 47°41' W 122°24'0 0.0
2014-Oct-17 14:20N 47°41' W 122°24'  
2014-Oct-13 22:20N 47°41' W 122°24'0 0.0
2014-Oct-13 22:11N 47°41' W 122°24'0 0.0
2014-Oct-13 21:32N 47°41' W 122°24'0 0.3
2014-Oct-13 21:31N 47°41' W 122°24'0 0.3
2014-Oct-13 20:32N 47°41' W 122°24'0 2.0
2014-Oct-13 20:31N 47°41' W 122°24'8 8.1
2014-Oct-13 19:33N 47°34' W 122°28'10 9.8
2014-Oct-13 18:33N 47°24' W 122°32'9 8.6
2014-Oct-13 17:33N 47°16' W 122°27'2 0.1
2014-Oct-13 04:29N 47°15' W 122°26'0 0.0
2014-Oct-13 01:32N 47°15' W 122°26'0 0.0
2014-Oct-13 00:32N 47°15' W 122°26'0 0.0
2014-Oct-12 06:19N 47°15' W 122°26'0 0.0
2014-Oct-12 05:28N 47°15' W 122°26'0 0.0
2014-Oct-12 04:31N 47°15' W 122°26'0 0.0
2014-Oct-12 03:31N 47°15' W 122°26'0 0.0
2014-Oct-12 02:28N 47°15' W 122°26'0 0.0
2014-Oct-12 01:22N 47°15' W 122°26'0 0.0
2014-Oct-12 00:31N 47°15' W 122°26'0 0.0
2014-Oct-11 21:03N 47°15' W 122°26'1 1.2
2014-Oct-11 20:33N 47°15' W 122°26'9 8.5
2014-Oct-11 19:33N 47°23' W 122°22'8 8.4
2014-Oct-11 18:33N 47°32' W 122°25'4 8.0
2014-Oct-11 18:04N 47°35' W 122°26'4 7.9
2014-Oct-11 17:33N 47°39' W 122°27'1 8.0
2014-Oct-11 17:24N 47°40' W 122°25'1 0.9
2014-Oct-11 16:31N 47°41' W 122°24'0 0.0
2014-Oct-11 16:19N 47°41' W 122°24'  

Dump ship's entire track history